Aurora — ZCDW9 — position and weather

sailwx.info

Track history (hours):
 
Tides and Currents Weather Stations Pressure Air Temp Water Temp Dewpoint Dewpoint Depression Visibility Wind Speed Wind Dir Waves Ship Positions

Aurora (Bermuda)

Last reported at 2018-Sep-18 16:00 UTC. Time now 2018-Sep-19 03:49 UTC.
Position N 43°06' W 019°42'.

Length 271 m; draft 8.3 m.

Type: Ship. MMSI: 310555970.

Wind from 290 at 26 knots

Barometer 1016.7 mb
Air temperature 20.6 ° C
Visibility: greater than 10.8 NM
Dewpoint 18.7 ° C
Water temperature 20.0 ° C

Date/timePositionNaut miles runAvg speedWind from/ knotsBaromVisibWave heightAir tempDewpointWater temp
2018-Sep-18 16:00N 43°06' W 019°42'11118.5 290 / 261016.710.8 20.618.720.0
2018-Sep-18 10:00N 43°24' W 017°12'5728.5 260 / 251013.310.8 20.418.020.0
2018-Sep-18 08:00N 43°30' W 015°54'23119.2 260 / 261015.710.8 20.418.220.0
2018-Sep-17 20:00N 44°54' W 010°54'18319.6 280 / 351011.210.8 19.417.920.0
2018-Sep-17 10:41N 47°03' W 007°48'821.2
2018-Sep-17 10:17N 47°10' W 007°41'518.1
2018-Sep-17 10:00N 47°06' W 007°36'1647.6 190 / 301009.610.8 19.018.817.0
2018-Sep-17 09:40N 47°21' W 007°30'1820.8
2018-Sep-17 08:49N 47°35' W 007°14'722.8
2018-Sep-17 08:29N 47°41' W 007°08'1022.4
2018-Sep-17 08:03N 47°49' W 006°59'354.0
2018-Sep-17 08:00N 47°48' W 006°54'363.7 190 / 211014.810.8 18.117.417.0
2018-Sep-17 07:56N 47°51' W 006°56'1422.5
2018-Sep-17 07:20N 48°02' W 006°44'721.8
2018-Sep-17 07:02N 48°07' W 006°38'222.3
2018-Sep-17 06:57N 48°08' W 006°37'2122.1
2018-Sep-17 06:00N 48°26' W 006°18'1422.3
2018-Sep-17 05:22N 48°37' W 006°06'722.6
2018-Sep-17 05:03N 48°43' W 005°60'1122.6
2018-Sep-17 04:33N 48°52' W 005°51'223.0
2018-Sep-17 04:29N 48°54' W 005°49'1022.9
2018-Sep-17 04:03N 48°59' W 005°37'122.5
2018-Sep-17 04:00N 48°60' W 005°36'1122.9
2018-Sep-17 03:30N 49°06' W 005°21'3623.1
2018-Sep-17 01:56N 49°24' W 004°33'1922.7
2018-Sep-17 01:07N 49°34' W 004°08'422.6
2018-Sep-17 00:57N 49°36' W 004°03'1022.5
2018-Sep-17 00:30N 49°41' W 003°50'1022.1
2018-Sep-17 00:03N 49°46' W 003°36'122.0
2018-Sep-17 00:01N 49°46' W 003°35'1121.7
2018-Sep-16 23:30N 49°52' W 003°20'1021.5
2018-Sep-16 23:03N 49°56' W 003°07'121.8
2018-Sep-16 23:00N 49°56' W 003°05'1121.6
2018-Sep-16 22:31N 50°00' W 002°50'1022.0
2018-Sep-16 22:04N 50°04' W 002°35'1822.3
2018-Sep-16 21:16N 50°11' W 002°10'522.8
2018-Sep-16 21:03N 50°13' W 002°03'122.9
2018-Sep-16 21:00N 50°13' W 002°02'1223.0
2018-Sep-16 20:31N 50°18' W 001°46'1123.4
2018-Sep-16 20:03N 50°23' W 001°31'124.1
2018-Sep-16 20:00N 50°24' W 001°29'1223.6
2018-Sep-16 19:31N 50°30' W 001°13'1123.4
2018-Sep-16 19:04N 50°35' W 000°59'122.6
2018-Sep-16 19:00N 50°36' W 000°58'612.2
2018-Sep-16 18:31N 50°42' W 000°59'817.1
2018-Sep-16 18:03N 50°46' W 001°10'118.3
2018-Sep-16 18:00N 50°46' W 001°11'5 9.9
2018-Sep-16 17:30N 50°49' W 001°18'4 9.4
2018-Sep-16 17:03N 50°52' W 001°22'112.9
2018-Sep-16 17:00N 50°52' W 001°23'3 5.5
2018-Sep-16 16:30N 50°54' W 001°26'0 0.0
2018-Sep-16 16:03N 50°54' W 001°26'0 0.0
2018-Sep-16 16:00N 50°54' W 001°26'0 0.0
2018-Sep-16 15:30N 50°54' W 001°26'0 0.0
2018-Sep-16 15:03N 50°54' W 001°26'0 0.0
2018-Sep-16 15:00N 50°54' W 001°26'0 0.0
2018-Sep-16 14:30N 50°54' W 001°26'0 0.0
2018-Sep-16 13:30N 50°54' W 001°26'0 0.0
2018-Sep-16 13:03N 50°54' W 001°26'0 0.0
2018-Sep-16 13:00N 50°54' W 001°26'0 0.0
2018-Sep-16 12:30N 50°54' W 001°26'0 0.0
2018-Sep-16 12:03N 50°54' W 001°26'0 0.0
2018-Sep-16 12:00N 50°54' W 001°26'0 0.0
2018-Sep-16 11:30N 50°54' W 001°26'0 0.0
2018-Sep-16 11:03N 50°54' W 001°26'0 0.0
2018-Sep-16 11:00N 50°54' W 001°26'0 0.0
2018-Sep-16 10:30N 50°54' W 001°26'0 0.0
2018-Sep-16 10:00N 50°54' W 001°26'0 0.0
2018-Sep-16 09:30N 50°54' W 001°26'0 0.0
2018-Sep-16 09:03N 50°54' W 001°26'0 0.0
2018-Sep-16 08:57N 50°54' W 001°26'0 0.0
2018-Sep-16 08:30N 50°54' W 001°26'0 0.0
2018-Sep-16 08:03N 50°54' W 001°26'0 0.0
2018-Sep-16 08:00N 50°54' W 001°26'0 0.0
2018-Sep-16 07:30N 50°54' W 001°26'0 0.0
2018-Sep-16 07:03N 50°54' W 001°26'0 0.0
2018-Sep-16 07:00N 50°54' W 001°26'0 0.0
2018-Sep-16 06:30N 50°54' W 001°26'0 0.0
2018-Sep-16 06:03N 50°54' W 001°26'0 0.0
2018-Sep-16 06:00N 50°54' W 001°26'0 0.0
2018-Sep-16 05:30N 50°54' W 001°26'0 0.5
2018-Sep-16 05:03N 50°54' W 001°26'0 5.6
2018-Sep-16 05:01N 50°54' W 001°25'5 9.3
2018-Sep-16 04:30N 50°51' W 001°20'4 9.6
2018-Sep-16 04:04N 50°47' W 001°18'113.2
2018-Sep-16 04:00N 50°46' W 001°17'917.3
2018-Sep-16 03:30N 50°44' W 001°04'614.2
2018-Sep-16 03:03N 50°40' W 000°56'0 7.5
2018-Sep-16 03:00N 50°40' W 000°56'714.1
2018-Sep-16 02:30N 50°37' W 000°46'817.5
2018-Sep-16 02:03N 50°35' W 000°34'117.2
2018-Sep-16 02:00N 50°35' W 000°32'816.7
2018-Sep-16 01:31N 50°34' W 000°19'716.2
2018-Sep-16 01:03N 50°33' W 000°08'116.1
2018-Sep-16 01:00N 50°33' W 000°07'815.8
2018-Sep-16 00:30N 50°34' E 000°05'715.8
2018-Sep-16 00:03N 50°36' E 000°16'116.0
2018-Sep-16 00:01N 50°36' E 000°17'816.1
2018-Sep-15 23:30N 50°38' E 000°30'716.6
2018-Sep-15 23:03N 50°41' E 000°40'117.1
2018-Sep-15 23:00N 50°42' E 000°41'917.7
2018-Sep-15 22:30N 50°47' E 000°53'818.3
2018-Sep-15 22:03N 50°51' E 001°04'118.5
2018-Sep-15 22:00N 50°52' E 001°05'918.8
2018-Sep-15 21:30N 50°58' E 001°16'818.9
2018-Sep-15 21:03N 51°03' E 001°27'118.6
2018-Sep-15 21:00N 51°04' E 001°28'918.1
2018-Sep-15 20:30N 51°09' E 001°39'817.2
2018-Sep-15 20:03N 51°15' E 001°47'116.8
2018-Sep-15 20:00N 51°16' E 001°48'816.5
2018-Sep-15 19:30N 51°23' E 001°56'613.9
2018-Sep-15 19:03N 51°24' E 002°05'117.2
2018-Sep-15 19:00N 51°24' E 002°07'816.8
2018-Sep-15 18:30N 51°21' E 002°19'715.6
2018-Sep-15 18:03N 51°23' E 002°30'115.1
2018-Sep-15 18:00N 51°23' E 002°31'815.1
2018-Sep-15 17:30N 51°24' E 002°43'512.3
2018-Sep-15 17:03N 51°25' E 002°51'116.2
2018-Sep-15 17:00N 51°25' E 002°53'816.0
2018-Sep-15 16:30N 51°24' E 003°05'612.5
2018-Sep-15 16:04N 51°21' E 003°12'0 3.6
2018-Sep-15 16:01N 51°21' E 003°12'0 0.2
2018-Sep-15 15:28N 51°20' E 003°12'0 0.0
2018-Sep-15 14:58N 51°20' E 003°12'0 0.0
2018-Sep-15 14:28N 51°20' E 003°12'0 0.0
2018-Sep-15 13:58N 51°20' E 003°12'0 0.0
2018-Sep-15 13:28N 51°20' E 003°12'0 0.0
2018-Sep-15 13:01N 51°20' E 003°12'0 0.0
2018-Sep-15 12:58N 51°20' E 003°12'0 0.0
2018-Sep-15 12:28N 51°20' E 003°12'0 0.0
2018-Sep-15 12:01N 51°20' E 003°12'0 0.0
2018-Sep-15 11:58N 51°20' E 003°12'0 0.0
2018-Sep-15 11:28N 51°20' E 003°12'0 0.0
2018-Sep-15 11:01N 51°20' E 003°12'0 0.0
2018-Sep-15 10:52N 51°20' E 003°12'0 0.0
2018-Sep-15 10:28N 51°20' E 003°12'0 0.0
2018-Sep-15 09:58N 51°20' E 003°12'0 0.0
2018-Sep-15 09:28N 51°20' E 003°12'0 0.0
2018-Sep-15 09:01N 51°20' E 003°12'0 0.0
2018-Sep-15 08:58N 51°20' E 003°12'0 0.0
2018-Sep-15 08:28N 51°20' E 003°12'0 0.0
2018-Sep-15 08:01N 51°20' E 003°12'0 0.0
2018-Sep-15 07:58N 51°20' E 003°12'0 0.0
2018-Sep-15 07:25N 51°20' E 003°12'0 0.0
2018-Sep-15 07:01N 51°20' E 003°12'0 0.0
2018-Sep-15 06:55N 51°20' E 003°12'0 0.0
2018-Sep-15 06:28N 51°20' E 003°12'0 0.0
2018-Sep-15 06:01N 51°20' E 003°12'0 0.0
2018-Sep-15 05:55N 51°20' E 003°12'0 0.0
2018-Sep-15 05:28N 51°20' E 003°12'0 0.0
2018-Sep-15 05:03N 51°20' E 003°12'0 1.3
2018-Sep-15 05:00N 51°21' E 003°12'2 4.0
2018-Sep-15 04:30N 51°22' E 003°11'714.6
2018-Sep-15 04:03N 51°24' E 003°00'117.8
2018-Sep-15 04:00N 51°23' E 002°59'917.4
2018-Sep-15 03:30N 51°22' E 002°46'714.4
2018-Sep-15 03:03N 51°22' E 002°35'117.3
2018-Sep-15 03:00N 51°22' E 002°34'816.9
2018-Sep-15 02:30N 51°19' E 002°21'817.0
2018-Sep-15 02:03N 51°15' E 002°11'117.3
2018-Sep-15 02:00N 51°14' E 002°10'917.9
2018-Sep-15 01:30N 51°10' E 001°57'818.0
2018-Sep-15 01:03N 51°06' E 001°46'118.1
2018-Sep-15 01:00N 51°06' E 001°45'917.8
2018-Sep-15 00:30N 50°59' E 001°35'817.2
2018-Sep-15 00:03N 50°53' E 001°27'117.0
2018-Sep-15 00:00N 50°52' E 001°27'917.1
2018-Sep-14 23:30N 50°45' E 001°21'817.1
2018-Sep-14 23:03N 50°39' E 001°13'117.6
2018-Sep-14 23:00N 50°38' E 001°12'1017.8
2018-Sep-14 22:28N 50°33' E 000°60'917.7
2018-Sep-14 21:58N 50°29' E 000°47'2218.9
2018-Sep-14 20:48N 50°24' E 000°13'620.4
2018-Sep-14 20:30N 50°22' E 000°04'1020.2
2018-Sep-14 19:59N 50°22' W 000°12'1519.3
2018-Sep-14 19:14N 50°29' W 000°32'420.0
2018-Sep-14 19:03N 50°31' W 000°37'120.0
2018-Sep-14 19:00N 50°31' W 000°38'1019.4
2018-Sep-14 18:30N 50°37' W 000°50'716.2
2018-Sep-14 18:03N 50°42' W 000°58'111.6
2018-Sep-14 18:00N 50°43' W 000°59'815.7
2018-Sep-14 17:31N 50°46' W 001°10'512.1
2018-Sep-14 17:03N 50°48' W 001°18'112.1
2018-Sep-14 17:00N 50°48' W 001°18'510.5
2018-Sep-14 16:31N 50°52' W 001°23'3 6.0
2018-Sep-14 16:03N 50°54' W 001°26'0 0.4
2018-Sep-14 16:00N 50°54' W 001°26'0 0.0
2018-Sep-14 15:30N 50°54' W 001°26'0 0.0
2018-Sep-14 15:03N 50°54' W 001°26'0 0.0
2018-Sep-14 15:00N 50°54' W 001°26'0 0.0
2018-Sep-14 14:30N 50°54' W 001°26'0 0.0
2018-Sep-14 14:00N 50°54' W 001°26'0 0.0
2018-Sep-14 13:30N 50°54' W 001°26'0 0.0
2018-Sep-14 13:03N 50°54' W 001°26'0 0.0
2018-Sep-14 13:00N 50°54' W 001°26'0 0.0
2018-Sep-14 12:30N 50°54' W 001°26'0 0.0
2018-Sep-14 12:00N 50°54' W 001°26'0 0.0
2018-Sep-14 11:30N 50°54' W 001°26'0 0.0
2018-Sep-14 11:03N 50°54' W 001°26'0 0.0
2018-Sep-14 11:00N 50°54' W 001°26'0 0.0
2018-Sep-14 10:27N 50°54' W 001°26'0 0.0
2018-Sep-14 10:03N 50°54' W 001°26'0 0.0
2018-Sep-14 10:00N 50°54' W 001°26'0 0.0
2018-Sep-14 09:30N 50°54' W 001°26'0 0.0
2018-Sep-14 09:03N 50°54' W 001°26'0 0.0
2018-Sep-14 08:57N 50°54' W 001°26'0 0.0
2018-Sep-14 08:30N 50°54' W 001°26'0 0.0
2018-Sep-14 08:03N 50°54' W 001°26'0 0.0
2018-Sep-14 07:57N 50°54' W 001°26'0 0.0
2018-Sep-14 07:30N 50°54' W 001°26'0 0.0
2018-Sep-14 07:03N 50°54' W 001°26'0 0.0
2018-Sep-14 07:00N 50°54' W 001°26'0 0.0
2018-Sep-14 06:30N 50°54' W 001°26'0 0.0
2018-Sep-14 06:03N 50°54' W 001°26'0 0.0
2018-Sep-14 06:00N 50°54' W 001°26'0 0.0
2018-Sep-14 05:30N 50°54' W 001°26'0 0.8
2018-Sep-14 05:03N 50°54' W 001°26'0 2.9
2018-Sep-14 05:00N 50°54' W 001°26'3 5.1
2018-Sep-14 04:30N 50°53' W 001°23'511.2
2018-Sep-14 04:04N 50°49' W 001°18'112.9
2018-Sep-14 04:01N 50°48' W 001°18'511.0
2018-Sep-14 03:30N 50°46' W 001°10'818.1
2018-Sep-14 03:03N 50°42' W 000°58'112.9
2018-Sep-14 03:00N 50°42' W 000°58'4 8.7
2018-Sep-14 02:31N 50°37' W 000°57'919.0
2018-Sep-14 02:04N 50°36' W 000°43'121.6
2018-Sep-14 02:01N 50°36' W 000°42'1120.9
2018-Sep-14 01:30N 50°34' W 000°25'919.8
2018-Sep-14 01:01N 50°32' W 000°11'019.4
2018-Sep-14 01:00N 50°32' W 000°10'917.9
2018-Sep-14 00:30N 50°33' E 000°04'715.6
2018-Sep-14 00:02N 50°34' E 000°15'015.4
2018-Sep-14 00:00N 50°34' E 000°16'815.2
2018-Sep-13 23:30N 50°36' E 000°28'715.4
2018-Sep-13 23:04N 50°37' E 000°38'115.9
2018-Sep-13 23:00N 50°37' E 000°39'816.2
2018-Sep-13 22:30N 50°42' E 000°50'817.3
2018-Sep-13 22:04N 50°47' E 000°59'118.3
2018-Sep-13 22:00N 50°48' E 001°00'918.6
2018-Sep-13 21:30N 50°54' E 001°11'919.6
2018-Sep-13 21:03N 51°01' E 001°20'120.2
2018-Sep-13 21:01N 51°01' E 001°22'1020.0
2018-Sep-13 20:30N 51°08' E 001°34'919.2
2018-Sep-13 20:04N 51°13' E 001°44'118.7
2018-Sep-13 20:01N 51°14' E 001°45'918.2
2018-Sep-13 19:31N 51°22' E 001°51'817.2
2018-Sep-13 19:04N 51°29' E 001°56'117.1
2018-Sep-13 19:00N 51°30' E 001°57'816.7
2018-Sep-13 18:31N 51°36' E 002°06'716.1
2018-Sep-13 18:04N 51°41' E 002°15'115.5
2018-Sep-13 18:00N 51°42' E 002°16'815.7
2018-Sep-13 17:30N 51°47' E 002°25'715.3
2018-Sep-13 17:03N 51°53' E 002°31'115.2
2018-Sep-13 17:00N 51°54' E 002°31'1015.2
2018-Sep-13 16:19N 52°04' E 002°37'18317.8
2018-Sep-13 06:00N 54°42' E 005°12'15022.1 260 / 281020.410.8 15.511.116.0
2018-Sep-12 23:13N 56°48' E 007°37'419.4
2018-Sep-12 22:59N 56°51' E 007°42'919.0
2018-Sep-12 22:30N 56°59' E 007°52'818.7
2018-Sep-12 22:03N 57°05' E 008°02'118.5
2018-Sep-12 22:00N 57°06' E 008°03'918.4
2018-Sep-12 21:30N 57°13' E 008°13'818.2
2018-Sep-12 21:03N 57°19' E 008°23'118.3
2018-Sep-12 21:00N 57°20' E 008°24'917.8
2018-Sep-12 20:30N 57°25' E 008°38'818.1
2018-Sep-12 20:03N 57°30' E 008°50'118.1
2018-Sep-12 20:00N 57°31' E 008°51'5494.8
2018-Sep-12 20:00N 57°30' E 008°42'1527.7 300 / 411016.810.8 14.310.516.0
2018-Sep-12 19:27N 57°34' E 009°09'718.1
2018-Sep-12 19:03N 57°36' E 009°22'118.0
2018-Sep-12 19:01N 57°36' E 009°23'918.1
2018-Sep-12 18:30N 57°39' E 009°40'817.7
2018-Sep-12 18:03N 57°42' E 009°54'117.5
2018-Sep-12 18:00N 57°42' E 009°56'816.0
2018-Sep-12 17:29N 57°45' E 010°10'614.8
2018-Sep-12 17:03N 57°47' E 010°21'115.3
2018-Sep-12 17:01N 57°47' E 010°22'714.2
2018-Sep-12 16:31N 57°47' E 010°36'613.1
2018-Sep-12 16:04N 57°47' E 010°47'115.0
2018-Sep-12 16:01N 57°46' E 010°47'612.2
2018-Sep-12 15:31N 57°43' E 010°37'1 2.6
2018-Sep-12 15:04N 57°43' E 010°35'0 0.4
2018-Sep-12 15:01N 57°43' E 010°35'0 0.0
2018-Sep-12 14:25N 57°43' E 010°35'0 0.0
2018-Sep-12 13:55N 57°43' E 010°35'0 0.0
2018-Sep-12 13:25N 57°43' E 010°35'0 0.0
2018-Sep-12 13:01N 57°43' E 010°35'0 0.0
2018-Sep-12 12:55N 57°43' E 010°35'0 0.0
2018-Sep-12 12:25N 57°43' E 010°35'0 0.0
2018-Sep-12 12:01N 57°43' E 010°35'0 0.0
2018-Sep-12 11:55N 57°43' E 010°35'0 0.0
2018-Sep-12 11:25N 57°43' E 010°35'0 0.0
2018-Sep-12 11:01N 57°43' E 010°35'0 0.0
2018-Sep-12 10:55N 57°43' E 010°35'0 0.0
2018-Sep-12 10:25N 57°43' E 010°35'0 0.0
2018-Sep-12 09:55N 57°43' E 010°35'0 0.0
2018-Sep-12 09:19N 57°43' E 010°35'0 0.0
2018-Sep-12 09:01N 57°43' E 010°35'0 0.0
2018-Sep-12 08:55N 57°43' E 010°35'0 0.0
2018-Sep-12 08:25N 57°43' E 010°35'0 0.0
2018-Sep-12 08:01N 57°43' E 010°35'0 0.0
2018-Sep-12 07:55N 57°43' E 010°35'0 0.0
2018-Sep-12 07:25N 57°43' E 010°35'0 0.0
2018-Sep-12 07:01N 57°43' E 010°35'0 0.0
2018-Sep-12 06:55N 57°43' E 010°35'0 0.0
2018-Sep-12 06:25N 57°43' E 010°35'0 0.0
2018-Sep-12 06:01N 57°43' E 010°35'0 0.0
2018-Sep-12 05:49N 57°43' E 010°35'0 0.5
2018-Sep-12 05:30N 57°43' E 010°36'3 7.1
2018-Sep-12 05:03N 57°43' E 010°41'0 8.6
2018-Sep-12 05:00N 57°43' E 010°42'612.6
2018-Sep-12 04:31N 57°40' E 010°53'716.4
2018-Sep-12 04:03N 57°36' E 011°04'116.7
2018-Sep-12 04:00N 57°35' E 011°06'816.8
2018-Sep-12 03:30N 57°31' E 011°19'716.0
2018-Sep-12 03:03N 57°26' E 011°28'116.6
2018-Sep-12 03:00N 57°25' E 011°29'917.1
2018-Sep-12 02:30N 57°17' E 011°34'817.5
2018-Sep-12 02:03N 57°09' E 011°39'117.4
2018-Sep-12 02:00N 57°09' E 011°39'917.2
2018-Sep-12 01:30N 57°00' E 011°44'712.7
2018-Sep-12 01:00N 56°54' E 011°42'51583.0 280 / 361010.010.8 15.113.316.0
2018-Sep-12 00:59N 56°52' E 011°50'817.0
2018-Sep-12 00:30N 56°44' E 011°53'6119.8
2018-Sep-11 21:25N 55°52' E 010°54'2717.9
2018-Sep-11 19:53N 55°25' E 010°59'718.9
2018-Sep-11 19:30N 55°18' E 011°03'817.3
2018-Sep-11 19:03N 55°11' E 011°02'120.5
2018-Sep-11 19:01N 55°10' E 011°01'1019.6
2018-Sep-11 18:30N 55°00' E 010°59'919.5
2018-Sep-11 18:03N 54°53' E 010°51'120.3
2018-Sep-11 18:00N 54°52' E 010°50'1020.2
2018-Sep-11 17:30N 54°42' E 010°46'919.2
2018-Sep-11 17:03N 54°35' E 010°37'119.6
2018-Sep-11 17:01N 54°35' E 010°36'918.0
2018-Sep-11 16:30N 54°30' E 010°22'813.2
2018-Sep-11 15:54N 54°25' E 010°13'5 0.5
2018-Sep-11 05:47N 54°20' E 010°09'2 6.7
2018-Sep-11 05:30N 54°22' E 010°10'611.1
2018-Sep-11 05:00N 54°27' E 010°14'611.4
2018-Sep-11 04:27N 54°31' E 010°22'512.0
2018-Sep-11 04:02N 54°33' E 010°30'012.0
2018-Sep-11 04:00N 54°33' E 010°30'612.6
2018-Sep-11 03:31N 54°35' E 010°41'613.9
2018-Sep-11 03:03N 54°35' E 010°52'113.9
2018-Sep-11 03:00N 54°35' E 010°53'714.0
2018-Sep-11 02:31N 54°36' E 011°05'614.2
2018-Sep-11 02:03N 54°35' E 011°15'114.7
2018-Sep-11 02:00N 54°34' E 011°17'714.7
2018-Sep-11 01:31N 54°31' E 011°28'614.0
2018-Sep-11 01:03N 54°29' E 011°38'113.9
2018-Sep-11 01:00N 54°28' E 011°39'713.7
2018-Sep-11 00:30N 54°26' E 011°50'614.0
2018-Sep-11 00:03N 54°26' E 012°01'114.2
2018-Sep-11 00:00N 54°26' E 012°03'712.6
2018-Sep-10 23:29N 54°29' E 012°12'614.6
2018-Sep-10 23:02N 54°35' E 012°16'014.6
2018-Sep-10 23:00N 54°36' E 012°16'1114.7
2018-Sep-10 22:17N 54°42' E 012°30'515.1
2018-Sep-10 21:58N 54°46' E 012°36'2314.6
2018-Sep-10 20:25N 54°54' E 013°13'2314.8
2018-Sep-10 18:53N 55°02' E 013°50'615.0
2018-Sep-10 18:30N 55°04' E 013°59'614.3
2018-Sep-10 18:03N 55°07' E 014°09'114.6
2018-Sep-10 18:00N 55°08' E 014°09'714.6
2018-Sep-10 17:30N 55°13' E 014°18'714.9
2018-Sep-10 17:03N 55°18' E 014°26'115.0
2018-Sep-10 17:00N 55°19' E 014°27'815.2
2018-Sep-10 16:30N 55°25' E 014°34'714.8
2018-Sep-10 16:03N 55°29' E 014°44'114.7
2018-Sep-10 16:00N 55°30' E 014°45'714.6
2018-Sep-10 15:30N 55°33' E 014°56'714.5
2018-Sep-10 15:03N 55°36' E 015°06'114.3
2018-Sep-10 15:00N 55°37' E 015°07'714.5
2018-Sep-10 14:30N 55°41' E 015°18'714.6
2018-Sep-10 14:00N 55°45' E 015°28'714.6
2018-Sep-10 13:30N 55°49' E 015°40'614.3
2018-Sep-10 13:03N 55°52' E 015°50'114.3
2018-Sep-10 13:00N 55°52' E 015°51'714.2
2018-Sep-10 12:30N 55°55' E 016°02'614.2
2018-Sep-10 12:03N 55°59' E 016°12'114.3
2018-Sep-10 12:00N 55°59' E 016°13'714.3
2018-Sep-10 11:30N 56°02' E 016°24'614.4
2018-Sep-10 11:03N 56°06' E 016°34'114.3
2018-Sep-10 11:00N 56°06' E 016°35'714.3
2018-Sep-10 10:30N 56°10' E 016°46'614.2
2018-Sep-10 10:03N 56°14' E 016°55'114.0
2018-Sep-10 10:00N 56°14' E 016°56'714.2
2018-Sep-10 09:30N 56°18' E 017°07'614.2
2018-Sep-10 09:03N 56°22' E 017°17'114.2
2018-Sep-10 09:00N 56°22' E 017°18'714.3
2018-Sep-10 08:30N 56°26' E 017°28'614.4
2018-Sep-10 08:03N 56°30' E 017°38'114.3
2018-Sep-10 08:00N 56°30' E 017°39'714.3
2018-Sep-10 07:30N 56°35' E 017°49'614.4
2018-Sep-10 07:03N 56°39' E 017°58'114.5
2018-Sep-10 07:00N 56°39' E 017°59'714.5
2018-Sep-10 06:30N 56°44' E 018°10'3 5.1
2018-Sep-10 06:00N 56°42' E 018°06'1735.0 180 / 271020.210.8 18.316.319.0
2018-Sep-10 05:30N 56°53' E 018°31'614.7
2018-Sep-10 05:03N 56°56' E 018°41'114.6
2018-Sep-10 05:00N 56°56' E 018°42'14713.3
2018-Sep-09 18:00N 57°30' E 023°06'101 4.5 040 / 71024.010.8 17.213.719.0
2018-Sep-08 19:48N 58°57' E 021°29'720.5
2018-Sep-08 19:29N 59°03' E 021°32'820.0
2018-Sep-08 19:03N 59°11' E 021°39'120.6
2018-Sep-08 19:00N 59°12' E 021°41'1020.3
2018-Sep-08 18:30N 59°16' E 021°59'920.2
2018-Sep-08 18:03N 59°18' E 022°16'120.2
2018-Sep-08 18:00N 59°18' E 022°18'6438.1
2018-Sep-08 18:00N 59°18' E 022°30'5 9.4 220 / 101018.210.8 19.013.819.0
2018-Sep-08 17:28N 59°20' E 022°39'820.2
2018-Sep-08 17:03N 59°21' E 022°55'120.2
2018-Sep-08 17:00N 59°22' E 022°57'1020.3
2018-Sep-08 16:30N 59°24' E 023°16'920.4
2018-Sep-08 16:03N 59°26' E 023°34'120.5
2018-Sep-08 16:00N 59°26' E 023°36'  
Track history (hours):
 
Tides and Currents Weather Stations Pressure Air Temp Water Temp Dewpoint Dewpoint Depression Visibility Wind Speed Wind Dir Waves Ship Positions

Aurora (Bermuda)

Last reported at 2018-Sep-18 16:00 UTC. Time now 2018-Sep-19 03:49 UTC.
Position N 43°06' W 019°42'.

Length 271 m; draft 8.3 m.

Type: Ship. MMSI: 310555970.

Wind from 290 at 26 knots

Barometer 1016.7 mb
Air temperature 20.6 ° C
Visibility: greater than 10.8 NM
Dewpoint 18.7 ° C
Water temperature 20.0 ° C

Date/timePositionNaut miles runAvg speedWind from/ knotsBaromVisibWave heightAir tempDewpointWater temp
2018-Sep-18 16:00N 43°06' W 019°42'11118.5 290 / 261016.710.8 20.618.720.0
2018-Sep-18 10:00N 43°24' W 017°12'5728.5 260 / 251013.310.8 20.418.020.0
2018-Sep-18 08:00N 43°30' W 015°54'23119.2 260 / 261015.710.8 20.418.220.0
2018-Sep-17 20:00N 44°54' W 010°54'18319.6 280 / 351011.210.8 19.417.920.0
2018-Sep-17 10:41N 47°03' W 007°48'821.2
2018-Sep-17 10:17N 47°10' W 007°41'518.1
2018-Sep-17 10:00N 47°06' W 007°36'1647.6 190 / 301009.610.8 19.018.817.0
2018-Sep-17 09:40N 47°21' W 007°30'1820.8
2018-Sep-17 08:49N 47°35' W 007°14'722.8
2018-Sep-17 08:29N 47°41' W 007°08'1022.4
2018-Sep-17 08:03N 47°49' W 006°59'354.0
2018-Sep-17 08:00N 47°48' W 006°54'363.7 190 / 211014.810.8 18.117.417.0
2018-Sep-17 07:56N 47°51' W 006°56'1422.5
2018-Sep-17 07:20N 48°02' W 006°44'721.8
2018-Sep-17 07:02N 48°07' W 006°38'222.3
2018-Sep-17 06:57N 48°08' W 006°37'2122.1
2018-Sep-17 06:00N 48°26' W 006°18'1422.3
2018-Sep-17 05:22N 48°37' W 006°06'722.6
2018-Sep-17 05:03N 48°43' W 005°60'1122.6
2018-Sep-17 04:33N 48°52' W 005°51'223.0
2018-Sep-17 04:29N 48°54' W 005°49'1022.9
2018-Sep-17 04:03N 48°59' W 005°37'122.5
2018-Sep-17 04:00N 48°60' W 005°36'1122.9
2018-Sep-17 03:30N 49°06' W 005°21'3623.1
2018-Sep-17 01:56N 49°24' W 004°33'1922.7
2018-Sep-17 01:07N 49°34' W 004°08'422.6
2018-Sep-17 00:57N 49°36' W 004°03'1022.5
2018-Sep-17 00:30N 49°41' W 003°50'1022.1
2018-Sep-17 00:03N 49°46' W 003°36'122.0
2018-Sep-17 00:01N 49°46' W 003°35'1121.7
2018-Sep-16 23:30N 49°52' W 003°20'1021.5
2018-Sep-16 23:03N 49°56' W 003°07'121.8
2018-Sep-16 23:00N 49°56' W 003°05'1121.6
2018-Sep-16 22:31N 50°00' W 002°50'1022.0
2018-Sep-16 22:04N 50°04' W 002°35'1822.3
2018-Sep-16 21:16N 50°11' W 002°10'522.8
2018-Sep-16 21:03N 50°13' W 002°03'122.9
2018-Sep-16 21:00N 50°13' W 002°02'1223.0
2018-Sep-16 20:31N 50°18' W 001°46'1123.4
2018-Sep-16 20:03N 50°23' W 001°31'124.1
2018-Sep-16 20:00N 50°24' W 001°29'1223.6
2018-Sep-16 19:31N 50°30' W 001°13'1123.4
2018-Sep-16 19:04N 50°35' W 000°59'122.6
2018-Sep-16 19:00N 50°36' W 000°58'612.2
2018-Sep-16 18:31N 50°42' W 000°59'817.1
2018-Sep-16 18:03N 50°46' W 001°10'118.3
2018-Sep-16 18:00N 50°46' W 001°11'5 9.9
2018-Sep-16 17:30N 50°49' W 001°18'4 9.4
2018-Sep-16 17:03N 50°52' W 001°22'112.9
2018-Sep-16 17:00N 50°52' W 001°23'3 5.5
2018-Sep-16 16:30N 50°54' W 001°26'0 0.0
2018-Sep-16 16:03N 50°54' W 001°26'0 0.0
2018-Sep-16 16:00N 50°54' W 001°26'0 0.0
2018-Sep-16 15:30N 50°54' W 001°26'0 0.0
2018-Sep-16 15:03N 50°54' W 001°26'0 0.0
2018-Sep-16 15:00N 50°54' W 001°26'0 0.0
2018-Sep-16 14:30N 50°54' W 001°26'0 0.0
2018-Sep-16 13:30N 50°54' W 001°26'0 0.0
2018-Sep-16 13:03N 50°54' W 001°26'0 0.0
2018-Sep-16 13:00N 50°54' W 001°26'0 0.0
2018-Sep-16 12:30N 50°54' W 001°26'0 0.0
2018-Sep-16 12:03N 50°54' W 001°26'0 0.0
2018-Sep-16 12:00N 50°54' W 001°26'0 0.0
2018-Sep-16 11:30N 50°54' W 001°26'0 0.0
2018-Sep-16 11:03N 50°54' W 001°26'0 0.0
2018-Sep-16 11:00N 50°54' W 001°26'0 0.0
2018-Sep-16 10:30N 50°54' W 001°26'0 0.0
2018-Sep-16 10:00N 50°54' W 001°26'0 0.0
2018-Sep-16 09:30N 50°54' W 001°26'0 0.0
2018-Sep-16 09:03N 50°54' W 001°26'0 0.0
2018-Sep-16 08:57N 50°54' W 001°26'0 0.0
2018-Sep-16 08:30N 50°54' W 001°26'0 0.0
2018-Sep-16 08:03N 50°54' W 001°26'0 0.0
2018-Sep-16 08:00N 50°54' W 001°26'0 0.0
2018-Sep-16 07:30N 50°54' W 001°26'0 0.0
2018-Sep-16 07:03N 50°54' W 001°26'0 0.0
2018-Sep-16 07:00N 50°54' W 001°26'0 0.0
2018-Sep-16 06:30N 50°54' W 001°26'0 0.0
2018-Sep-16 06:03N 50°54' W 001°26'0 0.0
2018-Sep-16 06:00N 50°54' W 001°26'0 0.0
2018-Sep-16 05:30N 50°54' W 001°26'0 0.5
2018-Sep-16 05:03N 50°54' W 001°26'0 5.6
2018-Sep-16 05:01N 50°54' W 001°25'5 9.3
2018-Sep-16 04:30N 50°51' W 001°20'4 9.6
2018-Sep-16 04:04N 50°47' W 001°18'113.2
2018-Sep-16 04:00N 50°46' W 001°17'917.3
2018-Sep-16 03:30N 50°44' W 001°04'614.2
2018-Sep-16 03:03N 50°40' W 000°56'0 7.5
2018-Sep-16 03:00N 50°40' W 000°56'714.1
2018-Sep-16 02:30N 50°37' W 000°46'817.5
2018-Sep-16 02:03N 50°35' W 000°34'117.2
2018-Sep-16 02:00N 50°35' W 000°32'816.7
2018-Sep-16 01:31N 50°34' W 000°19'716.2
2018-Sep-16 01:03N 50°33' W 000°08'116.1
2018-Sep-16 01:00N 50°33' W 000°07'815.8
2018-Sep-16 00:30N 50°34' E 000°05'715.8
2018-Sep-16 00:03N 50°36' E 000°16'116.0
2018-Sep-16 00:01N 50°36' E 000°17'816.1
2018-Sep-15 23:30N 50°38' E 000°30'716.6
2018-Sep-15 23:03N 50°41' E 000°40'117.1
2018-Sep-15 23:00N 50°42' E 000°41'917.7
2018-Sep-15 22:30N 50°47' E 000°53'818.3
2018-Sep-15 22:03N 50°51' E 001°04'118.5
2018-Sep-15 22:00N 50°52' E 001°05'918.8
2018-Sep-15 21:30N 50°58' E 001°16'818.9
2018-Sep-15 21:03N 51°03' E 001°27'118.6
2018-Sep-15 21:00N 51°04' E 001°28'918.1
2018-Sep-15 20:30N 51°09' E 001°39'817.2
2018-Sep-15 20:03N 51°15' E 001°47'116.8
2018-Sep-15 20:00N 51°16' E 001°48'816.5
2018-Sep-15 19:30N 51°23' E 001°56'613.9
2018-Sep-15 19:03N 51°24' E 002°05'117.2
2018-Sep-15 19:00N 51°24' E 002°07'816.8
2018-Sep-15 18:30N 51°21' E 002°19'715.6
2018-Sep-15 18:03N 51°23' E 002°30'115.1
2018-Sep-15 18:00N 51°23' E 002°31'815.1
2018-Sep-15 17:30N 51°24' E 002°43'512.3
2018-Sep-15 17:03N 51°25' E 002°51'116.2
2018-Sep-15 17:00N 51°25' E 002°53'816.0
2018-Sep-15 16:30N 51°24' E 003°05'612.5
2018-Sep-15 16:04N 51°21' E 003°12'0 3.6
2018-Sep-15 16:01N 51°21' E 003°12'0 0.2
2018-Sep-15 15:28N 51°20' E 003°12'0 0.0
2018-Sep-15 14:58N 51°20' E 003°12'0 0.0
2018-Sep-15 14:28N 51°20' E 003°12'0 0.0
2018-Sep-15 13:58N 51°20' E 003°12'0 0.0
2018-Sep-15 13:28N 51°20' E 003°12'0 0.0
2018-Sep-15 13:01N 51°20' E 003°12'0 0.0
2018-Sep-15 12:58N 51°20' E 003°12'0 0.0
2018-Sep-15 12:28N 51°20' E 003°12'0 0.0
2018-Sep-15 12:01N 51°20' E 003°12'0 0.0
2018-Sep-15 11:58N 51°20' E 003°12'0 0.0
2018-Sep-15 11:28N 51°20' E 003°12'0 0.0
2018-Sep-15 11:01N 51°20' E 003°12'0 0.0
2018-Sep-15 10:52N 51°20' E 003°12'0 0.0
2018-Sep-15 10:28N 51°20' E 003°12'0 0.0
2018-Sep-15 09:58N 51°20' E 003°12'0 0.0
2018-Sep-15 09:28N 51°20' E 003°12'0 0.0
2018-Sep-15 09:01N 51°20' E 003°12'0 0.0
2018-Sep-15 08:58N 51°20' E 003°12'0 0.0
2018-Sep-15 08:28N 51°20' E 003°12'0 0.0
2018-Sep-15 08:01N 51°20' E 003°12'0 0.0
2018-Sep-15 07:58N 51°20' E 003°12'0 0.0
2018-Sep-15 07:25N 51°20' E 003°12'0 0.0
2018-Sep-15 07:01N 51°20' E 003°12'0 0.0
2018-Sep-15 06:55N 51°20' E 003°12'0 0.0
2018-Sep-15 06:28N 51°20' E 003°12'0 0.0
2018-Sep-15 06:01N 51°20' E 003°12'0 0.0
2018-Sep-15 05:55N 51°20' E 003°12'0 0.0
2018-Sep-15 05:28N 51°20' E 003°12'0 0.0
2018-Sep-15 05:03N 51°20' E 003°12'0 1.3
2018-Sep-15 05:00N 51°21' E 003°12'2 4.0
2018-Sep-15 04:30N 51°22' E 003°11'714.6
2018-Sep-15 04:03N 51°24' E 003°00'117.8
2018-Sep-15 04:00N 51°23' E 002°59'917.4
2018-Sep-15 03:30N 51°22' E 002°46'714.4
2018-Sep-15 03:03N 51°22' E 002°35'117.3
2018-Sep-15 03:00N 51°22' E 002°34'816.9
2018-Sep-15 02:30N 51°19' E 002°21'817.0
2018-Sep-15 02:03N 51°15' E 002°11'117.3
2018-Sep-15 02:00N 51°14' E 002°10'917.9
2018-Sep-15 01:30N 51°10' E 001°57'818.0
2018-Sep-15 01:03N 51°06' E 001°46'118.1
2018-Sep-15 01:00N 51°06' E 001°45'917.8
2018-Sep-15 00:30N 50°59' E 001°35'817.2
2018-Sep-15 00:03N 50°53' E 001°27'117.0
2018-Sep-15 00:00N 50°52' E 001°27'917.1
2018-Sep-14 23:30N 50°45' E 001°21'817.1
2018-Sep-14 23:03N 50°39' E 001°13'117.6
2018-Sep-14 23:00N 50°38' E 001°12'1017.8
2018-Sep-14 22:28N 50°33' E 000°60'917.7
2018-Sep-14 21:58N 50°29' E 000°47'2218.9
2018-Sep-14 20:48N 50°24' E 000°13'620.4
2018-Sep-14 20:30N 50°22' E 000°04'1020.2
2018-Sep-14 19:59N 50°22' W 000°12'1519.3
2018-Sep-14 19:14N 50°29' W 000°32'420.0
2018-Sep-14 19:03N 50°31' W 000°37'120.0
2018-Sep-14 19:00N 50°31' W 000°38'1019.4
2018-Sep-14 18:30N 50°37' W 000°50'716.2
2018-Sep-14 18:03N 50°42' W 000°58'111.6
2018-Sep-14 18:00N 50°43' W 000°59'815.7
2018-Sep-14 17:31N 50°46' W 001°10'512.1
2018-Sep-14 17:03N 50°48' W 001°18'112.1
2018-Sep-14 17:00N 50°48' W 001°18'510.5
2018-Sep-14 16:31N 50°52' W 001°23'3 6.0
2018-Sep-14 16:03N 50°54' W 001°26'0 0.4
2018-Sep-14 16:00N 50°54' W 001°26'0 0.0
2018-Sep-14 15:30N 50°54' W 001°26'0 0.0
2018-Sep-14 15:03N 50°54' W 001°26'0 0.0
2018-Sep-14 15:00N 50°54' W 001°26'0 0.0
2018-Sep-14 14:30N 50°54' W 001°26'0 0.0
2018-Sep-14 14:00N 50°54' W 001°26'0 0.0
2018-Sep-14 13:30N 50°54' W 001°26'0 0.0
2018-Sep-14 13:03N 50°54' W 001°26'0 0.0
2018-Sep-14 13:00N 50°54' W 001°26'0 0.0
2018-Sep-14 12:30N 50°54' W 001°26'0 0.0
2018-Sep-14 12:00N 50°54' W 001°26'0 0.0
2018-Sep-14 11:30N 50°54' W 001°26'0 0.0
2018-Sep-14 11:03N 50°54' W 001°26'0 0.0
2018-Sep-14 11:00N 50°54' W 001°26'0 0.0
2018-Sep-14 10:27N 50°54' W 001°26'0 0.0
2018-Sep-14 10:03N 50°54' W 001°26'0 0.0
2018-Sep-14 10:00N 50°54' W 001°26'0 0.0
2018-Sep-14 09:30N 50°54' W 001°26'0 0.0
2018-Sep-14 09:03N 50°54' W 001°26'0 0.0
2018-Sep-14 08:57N 50°54' W 001°26'0 0.0
2018-Sep-14 08:30N 50°54' W 001°26'0 0.0
2018-Sep-14 08:03N 50°54' W 001°26'0 0.0
2018-Sep-14 07:57N 50°54' W 001°26'0 0.0
2018-Sep-14 07:30N 50°54' W 001°26'0 0.0
2018-Sep-14 07:03N 50°54' W 001°26'0 0.0
2018-Sep-14 07:00N 50°54' W 001°26'0 0.0
2018-Sep-14 06:30N 50°54' W 001°26'0 0.0
2018-Sep-14 06:03N 50°54' W 001°26'0 0.0
2018-Sep-14 06:00N 50°54' W 001°26'0 0.0
2018-Sep-14 05:30N 50°54' W 001°26'0 0.8
2018-Sep-14 05:03N 50°54' W 001°26'0 2.9
2018-Sep-14 05:00N 50°54' W 001°26'3 5.1
2018-Sep-14 04:30N 50°53' W 001°23'511.2
2018-Sep-14 04:04N 50°49' W 001°18'112.9
2018-Sep-14 04:01N 50°48' W 001°18'511.0
2018-Sep-14 03:30N 50°46' W 001°10'818.1
2018-Sep-14 03:03N 50°42' W 000°58'112.9
2018-Sep-14 03:00N 50°42' W 000°58'4 8.7
2018-Sep-14 02:31N 50°37' W 000°57'919.0
2018-Sep-14 02:04N 50°36' W 000°43'121.6
2018-Sep-14 02:01N 50°36' W 000°42'1120.9
2018-Sep-14 01:30N 50°34' W 000°25'919.8
2018-Sep-14 01:01N 50°32' W 000°11'019.4
2018-Sep-14 01:00N 50°32' W 000°10'917.9
2018-Sep-14 00:30N 50°33' E 000°04'715.6
2018-Sep-14 00:02N 50°34' E 000°15'015.4
2018-Sep-14 00:00N 50°34' E 000°16'815.2
2018-Sep-13 23:30N 50°36' E 000°28'715.4
2018-Sep-13 23:04N 50°37' E 000°38'115.9
2018-Sep-13 23:00N 50°37' E 000°39'816.2
2018-Sep-13 22:30N 50°42' E 000°50'817.3
2018-Sep-13 22:04N 50°47' E 000°59'118.3
2018-Sep-13 22:00N 50°48' E 001°00'918.6
2018-Sep-13 21:30N 50°54' E 001°11'919.6
2018-Sep-13 21:03N 51°01' E 001°20'120.2
2018-Sep-13 21:01N 51°01' E 001°22'1020.0
2018-Sep-13 20:30N 51°08' E 001°34'919.2
2018-Sep-13 20:04N 51°13' E 001°44'118.7
2018-Sep-13 20:01N 51°14' E 001°45'918.2
2018-Sep-13 19:31N 51°22' E 001°51'817.2
2018-Sep-13 19:04N 51°29' E 001°56'117.1
2018-Sep-13 19:00N 51°30' E 001°57'816.7
2018-Sep-13 18:31N 51°36' E 002°06'716.1
2018-Sep-13 18:04N 51°41' E 002°15'115.5
2018-Sep-13 18:00N 51°42' E 002°16'815.7
2018-Sep-13 17:30N 51°47' E 002°25'715.3
2018-Sep-13 17:03N 51°53' E 002°31'115.2
2018-Sep-13 17:00N 51°54' E 002°31'1015.2
2018-Sep-13 16:19N 52°04' E 002°37'18317.8
2018-Sep-13 06:00N 54°42' E 005°12'15022.1 260 / 281020.410.8 15.511.116.0
2018-Sep-12 23:13N 56°48' E 007°37'419.4
2018-Sep-12 22:59N 56°51' E 007°42'919.0
2018-Sep-12 22:30N 56°59' E 007°52'818.7
2018-Sep-12 22:03N 57°05' E 008°02'118.5
2018-Sep-12 22:00N 57°06' E 008°03'918.4
2018-Sep-12 21:30N 57°13' E 008°13'818.2
2018-Sep-12 21:03N 57°19' E 008°23'118.3
2018-Sep-12 21:00N 57°20' E 008°24'917.8
2018-Sep-12 20:30N 57°25' E 008°38'818.1
2018-Sep-12 20:03N 57°30' E 008°50'118.1
2018-Sep-12 20:00N 57°31' E 008°51'5494.8
2018-Sep-12 20:00N 57°30' E 008°42'1527.7 300 / 411016.810.8 14.310.516.0
2018-Sep-12 19:27N 57°34' E 009°09'718.1
2018-Sep-12 19:03N 57°36' E 009°22'118.0
2018-Sep-12 19:01N 57°36' E 009°23'918.1
2018-Sep-12 18:30N 57°39' E 009°40'817.7
2018-Sep-12 18:03N 57°42' E 009°54'117.5
2018-Sep-12 18:00N 57°42' E 009°56'816.0
2018-Sep-12 17:29N 57°45' E 010°10'614.8
2018-Sep-12 17:03N 57°47' E 010°21'115.3
2018-Sep-12 17:01N 57°47' E 010°22'714.2
2018-Sep-12 16:31N 57°47' E 010°36'613.1
2018-Sep-12 16:04N 57°47' E 010°47'115.0
2018-Sep-12 16:01N 57°46' E 010°47'612.2
2018-Sep-12 15:31N 57°43' E 010°37'1 2.6
2018-Sep-12 15:04N 57°43' E 010°35'0 0.4
2018-Sep-12 15:01N 57°43' E 010°35'0 0.0
2018-Sep-12 14:25N 57°43' E 010°35'0 0.0
2018-Sep-12 13:55N 57°43' E 010°35'0 0.0
2018-Sep-12 13:25N 57°43' E 010°35'0 0.0
2018-Sep-12 13:01N 57°43' E 010°35'0 0.0
2018-Sep-12 12:55N 57°43' E 010°35'0 0.0
2018-Sep-12 12:25N 57°43' E 010°35'0 0.0
2018-Sep-12 12:01N 57°43' E 010°35'0 0.0
2018-Sep-12 11:55N 57°43' E 010°35'0 0.0
2018-Sep-12 11:25N 57°43' E 010°35'0 0.0
2018-Sep-12 11:01N 57°43' E 010°35'0 0.0
2018-Sep-12 10:55N 57°43' E 010°35'0 0.0
2018-Sep-12 10:25N 57°43' E 010°35'0 0.0
2018-Sep-12 09:55N 57°43' E 010°35'0 0.0
2018-Sep-12 09:19N 57°43' E 010°35'0 0.0
2018-Sep-12 09:01N 57°43' E 010°35'0 0.0
2018-Sep-12 08:55N 57°43' E 010°35'0 0.0
2018-Sep-12 08:25N 57°43' E 010°35'0 0.0
2018-Sep-12 08:01N 57°43' E 010°35'0 0.0
2018-Sep-12 07:55N 57°43' E 010°35'0 0.0
2018-Sep-12 07:25N 57°43' E 010°35'0 0.0
2018-Sep-12 07:01N 57°43' E 010°35'0 0.0
2018-Sep-12 06:55N 57°43' E 010°35'0 0.0
2018-Sep-12 06:25N 57°43' E 010°35'0 0.0
2018-Sep-12 06:01N 57°43' E 010°35'0 0.0
2018-Sep-12 05:49N 57°43' E 010°35'0 0.5
2018-Sep-12 05:30N 57°43' E 010°36'3 7.1
2018-Sep-12 05:03N 57°43' E 010°41'0 8.6
2018-Sep-12 05:00N 57°43' E 010°42'612.6
2018-Sep-12 04:31N 57°40' E 010°53'716.4
2018-Sep-12 04:03N 57°36' E 011°04'116.7
2018-Sep-12 04:00N 57°35' E 011°06'816.8
2018-Sep-12 03:30N 57°31' E 011°19'716.0
2018-Sep-12 03:03N 57°26' E 011°28'116.6
2018-Sep-12 03:00N 57°25' E 011°29'917.1
2018-Sep-12 02:30N 57°17' E 011°34'817.5
2018-Sep-12 02:03N 57°09' E 011°39'117.4
2018-Sep-12 02:00N 57°09' E 011°39'917.2
2018-Sep-12 01:30N 57°00' E 011°44'712.7
2018-Sep-12 01:00N 56°54' E 011°42'51583.0 280 / 361010.010.8 15.113.316.0
2018-Sep-12 00:59N 56°52' E 011°50'817.0
2018-Sep-12 00:30N 56°44' E 011°53'6119.8
2018-Sep-11 21:25N 55°52' E 010°54'2717.9
2018-Sep-11 19:53N 55°25' E 010°59'718.9
2018-Sep-11 19:30N 55°18' E 011°03'817.3
2018-Sep-11 19:03N 55°11' E 011°02'120.5
2018-Sep-11 19:01N 55°10' E 011°01'1019.6
2018-Sep-11 18:30N 55°00' E 010°59'919.5
2018-Sep-11 18:03N 54°53' E 010°51'120.3
2018-Sep-11 18:00N 54°52' E 010°50'1020.2
2018-Sep-11 17:30N 54°42' E 010°46'919.2
2018-Sep-11 17:03N 54°35' E 010°37'119.6
2018-Sep-11 17:01N 54°35' E 010°36'918.0
2018-Sep-11 16:30N 54°30' E 010°22'813.2
2018-Sep-11 15:54N 54°25' E 010°13'5 0.5
2018-Sep-11 05:47N 54°20' E 010°09'2 6.7
2018-Sep-11 05:30N 54°22' E 010°10'611.1
2018-Sep-11 05:00N 54°27' E 010°14'611.4
2018-Sep-11 04:27N 54°31' E 010°22'512.0
2018-Sep-11 04:02N 54°33' E 010°30'012.0
2018-Sep-11 04:00N 54°33' E 010°30'612.6
2018-Sep-11 03:31N 54°35' E 010°41'613.9
2018-Sep-11 03:03N 54°35' E 010°52'113.9
2018-Sep-11 03:00N 54°35' E 010°53'714.0
2018-Sep-11 02:31N 54°36' E 011°05'614.2
2018-Sep-11 02:03N 54°35' E 011°15'114.7
2018-Sep-11 02:00N 54°34' E 011°17'714.7
2018-Sep-11 01:31N 54°31' E 011°28'614.0
2018-Sep-11 01:03N 54°29' E 011°38'113.9
2018-Sep-11 01:00N 54°28' E 011°39'713.7
2018-Sep-11 00:30N 54°26' E 011°50'614.0
2018-Sep-11 00:03N 54°26' E 012°01'114.2
2018-Sep-11 00:00N 54°26' E 012°03'712.6
2018-Sep-10 23:29N 54°29' E 012°12'614.6
2018-Sep-10 23:02N 54°35' E 012°16'014.6
2018-Sep-10 23:00N 54°36' E 012°16'1114.7
2018-Sep-10 22:17N 54°42' E 012°30'515.1
2018-Sep-10 21:58N 54°46' E 012°36'2314.6
2018-Sep-10 20:25N 54°54' E 013°13'2314.8
2018-Sep-10 18:53N 55°02' E 013°50'615.0
2018-Sep-10 18:30N 55°04' E 013°59'614.3
2018-Sep-10 18:03N 55°07' E 014°09'114.6
2018-Sep-10 18:00N 55°08' E 014°09'714.6
2018-Sep-10 17:30N 55°13' E 014°18'714.9
2018-Sep-10 17:03N 55°18' E 014°26'115.0
2018-Sep-10 17:00N 55°19' E 014°27'815.2
2018-Sep-10 16:30N 55°25' E 014°34'714.8
2018-Sep-10 16:03N 55°29' E 014°44'114.7
2018-Sep-10 16:00N 55°30' E 014°45'714.6
2018-Sep-10 15:30N 55°33' E 014°56'714.5
2018-Sep-10 15:03N 55°36' E 015°06'114.3
2018-Sep-10 15:00N 55°37' E 015°07'714.5
2018-Sep-10 14:30N 55°41' E 015°18'714.6
2018-Sep-10 14:00N 55°45' E 015°28'714.6
2018-Sep-10 13:30N 55°49' E 015°40'614.3
2018-Sep-10 13:03N 55°52' E 015°50'114.3
2018-Sep-10 13:00N 55°52' E 015°51'714.2
2018-Sep-10 12:30N 55°55' E 016°02'614.2
2018-Sep-10 12:03N 55°59' E 016°12'114.3
2018-Sep-10 12:00N 55°59' E 016°13'714.3
2018-Sep-10 11:30N 56°02' E 016°24'614.4
2018-Sep-10 11:03N 56°06' E 016°34'114.3
2018-Sep-10 11:00N 56°06' E 016°35'714.3
2018-Sep-10 10:30N 56°10' E 016°46'614.2
2018-Sep-10 10:03N 56°14' E 016°55'114.0
2018-Sep-10 10:00N 56°14' E 016°56'714.2
2018-Sep-10 09:30N 56°18' E 017°07'614.2
2018-Sep-10 09:03N 56°22' E 017°17'114.2
2018-Sep-10 09:00N 56°22' E 017°18'714.3
2018-Sep-10 08:30N 56°26' E 017°28'614.4
2018-Sep-10 08:03N 56°30' E 017°38'114.3
2018-Sep-10 08:00N 56°30' E 017°39'714.3
2018-Sep-10 07:30N 56°35' E 017°49'614.4
2018-Sep-10 07:03N 56°39' E 017°58'114.5
2018-Sep-10 07:00N 56°39' E 017°59'714.5
2018-Sep-10 06:30N 56°44' E 018°10'3 5.1
2018-Sep-10 06:00N 56°42' E 018°06'1735.0 180 / 271020.210.8 18.316.319.0
2018-Sep-10 05:30N 56°53' E 018°31'614.7
2018-Sep-10 05:03N 56°56' E 018°41'114.6
2018-Sep-10 05:00N 56°56' E 018°42'14713.3
2018-Sep-09 18:00N 57°30' E 023°06'101 4.5 040 / 71024.010.8 17.213.719.0
2018-Sep-08 19:48N 58°57' E 021°29'720.5
2018-Sep-08 19:29N 59°03' E 021°32'820.0
2018-Sep-08 19:03N 59°11' E 021°39'120.6
2018-Sep-08 19:00N 59°12' E 021°41'1020.3
2018-Sep-08 18:30N 59°16' E 021°59'920.2
2018-Sep-08 18:03N 59°18' E 022°16'120.2
2018-Sep-08 18:00N 59°18' E 022°18'6438.1
2018-Sep-08 18:00N 59°18' E 022°30'5 9.4 220 / 101018.210.8 19.013.819.0
2018-Sep-08 17:28N 59°20' E 022°39'820.2
2018-Sep-08 17:03N 59°21' E 022°55'120.2
2018-Sep-08 17:00N 59°22' E 022°57'1020.3
2018-Sep-08 16:30N 59°24' E 023°16'920.4
2018-Sep-08 16:03N 59°26' E 023°34'120.5
2018-Sep-08 16:00N 59°26' E 023°36'  

Dump ship's entire track history